sensor_id;sensor_type;location;lat;lon;timestamp;P1;durP1;ratioP1;P2;durP2;ratioP2
22097;SDS011;11215;51.938;8.464;2023-10-08T00:00:43;9.93;;;5.47;;
22097;SDS011;11215;51.938;8.464;2023-10-08T00:03:14;10.07;;;5.23;;
22097;SDS011;11215;51.938;8.464;2023-10-08T00:05:42;8.73;;;5.17;;
22097;SDS011;11215;51.938;8.464;2023-10-08T00:08:08;10.23;;;5.13;;
22097;SDS011;11215;51.938;8.464;2023-10-08T00:10:35;13.73;;;5.37;;
22097;SDS011;11215;51.938;8.464;2023-10-08T00:13:03;8.07;;;5.47;;
22097;SDS011;11215;51.938;8.464;2023-10-08T00:15:31;10.53;;;5.23;;
22097;SDS011;11215;51.938;8.464;2023-10-08T00:17:57;11.20;;;5.63;;
22097;SDS011;11215;51.938;8.464;2023-10-08T00:20:26;9.97;;;5.57;;
22097;SDS011;11215;51.938;8.464;2023-10-08T00:23:01;10.73;;;5.80;;
22097;SDS011;11215;51.938;8.464;2023-10-08T00:25:28;9.43;;;5.50;;
22097;SDS011;11215;51.938;8.464;2023-10-08T00:27:56;12.77;;;5.80;;
22097;SDS011;11215;51.938;8.464;2023-10-08T00:30:21;11.17;;;5.63;;
22097;SDS011;11215;51.938;8.464;2023-10-08T00:32:47;13.30;;;6.00;;
22097;SDS011;11215;51.938;8.464;2023-10-08T00:35:13;11.20;;;6.03;;
22097;SDS011;11215;51.938;8.464;2023-10-08T00:37:41;10.30;;;5.90;;
22097;SDS011;11215;51.938;8.464;2023-10-08T00:40:07;11.63;;;6.03;;
22097;SDS011;11215;51.938;8.464;2023-10-08T00:42:39;8.90;;;5.33;;
22097;SDS011;11215;51.938;8.464;2023-10-08T00:45:11;13.10;;;6.07;;
22097;SDS011;11215;51.938;8.464;2023-10-08T00:47:40;13.27;;;6.03;;
22097;SDS011;11215;51.938;8.464;2023-10-08T00:50:09;7.57;;;5.13;;
22097;SDS011;11215;51.938;8.464;2023-10-08T00:52:44;10.67;;;5.30;;
22097;SDS011;11215;51.938;8.464;2023-10-08T00:55:22;11.67;;;6.03;;
22097;SDS011;11215;51.938;8.464;2023-10-08T00:57:56;13.87;;;5.73;;
22097;SDS011;11215;51.938;8.464;2023-10-08T01:00:26;15.87;;;5.53;;
22097;SDS011;11215;51.938;8.464;2023-10-08T01:03:02;9.20;;;5.63;;
22097;SDS011;11215;51.938;8.464;2023-10-08T01:05:39;14.50;;;5.40;;
22097;SDS011;11215;51.938;8.464;2023-10-08T01:08:12;11.10;;;5.53;;
22097;SDS011;11215;51.938;8.464;2023-10-08T01:10:49;12.43;;;5.87;;
22097;SDS011;11215;51.938;8.464;2023-10-08T01:13:25;15.70;;;6.33;;
22097;SDS011;11215;51.938;8.464;2023-10-08T01:15:52;13.60;;;5.93;;
22097;SDS011;11215;51.938;8.464;2023-10-08T01:18:19;12.90;;;5.47;;
22097;SDS011;11215;51.938;8.464;2023-10-08T01:20:54;11.87;;;5.83;;
22097;SDS011;11215;51.938;8.464;2023-10-08T01:23:21;12.27;;;5.87;;
22097;SDS011;11215;51.938;8.464;2023-10-08T01:25:47;11.07;;;5.80;;
22097;SDS011;11215;51.938;8.464;2023-10-08T01:28:17;11.07;;;5.87;;
22097;SDS011;11215;51.938;8.464;2023-10-08T01:30:56;14.10;;;5.47;;
22097;SDS011;11215;51.938;8.464;2023-10-08T01:33:25;12.03;;;5.70;;
22097;SDS011;11215;51.938;8.464;2023-10-08T01:36:11;10.90;;;5.73;;
22097;SDS011;11215;51.938;8.464;2023-10-08T01:38:38;13.60;;;5.73;;
22097;SDS011;11215;51.938;8.464;2023-10-08T01:41:04;8.50;;;5.50;;
22097;SDS011;11215;51.938;8.464;2023-10-08T01:43:43;10.60;;;5.07;;
22097;SDS011;11215;51.938;8.464;2023-10-08T01:46:09;5.73;;;3.07;;
22097;SDS011;11215;51.938;8.464;2023-10-08T01:48:37;4.33;;;2.07;;
22097;SDS011;11215;51.938;8.464;2023-10-08T01:51:04;1.77;;;1.53;;
22097;SDS011;11215;51.938;8.464;2023-10-08T01:53:34;0.80;;;0.77;;
22097;SDS011;11215;51.938;8.464;2023-10-08T01:56:01;0.97;;;0.73;;
22097;SDS011;11215;51.938;8.464;2023-10-08T01:58:29;1.40;;;0.43;;
22097;SDS011;11215;51.938;8.464;2023-10-08T02:00:55;0.53;;;0.20;;
22097;SDS011;11215;51.938;8.464;2023-10-08T02:03:25;0.30;;;0.30;;
22097;SDS011;11215;51.938;8.464;2023-10-08T02:05:52;0.10;;;0.10;;
22097;SDS011;11215;51.938;8.464;2023-10-08T02:08:19;0.73;;;0.10;;
22097;SDS011;11215;51.938;8.464;2023-10-08T02:10:45;0.50;;;0.20;;
22097;SDS011;11215;51.938;8.464;2023-10-08T02:13:12;0.10;;;0.10;;
22097;SDS011;11215;51.938;8.464;2023-10-08T02:15:49;1.70;;;0.27;;
22097;SDS011;11215;51.938;8.464;2023-10-08T02:18:18;0.10;;;0.10;;
22097;SDS011;11215;51.938;8.464;2023-10-08T02:20:45;0.10;;;0.10;;
22097;SDS011;11215;51.938;8.464;2023-10-08T02:23:11;0.30;;;0.07;;
22097;SDS011;11215;51.938;8.464;2023-10-08T02:25:40;0.00;;;0.00;;
22097;SDS011;11215;51.938;8.464;2023-10-08T02:28:09;0.00;;;0.00;;
22097;SDS011;11215;51.938;8.464;2023-10-08T02:30:37;0.10;;;0.10;;
22097;SDS011;11215;51.938;8.464;2023-10-08T02:33:04;0.10;;;0.10;;
22097;SDS011;11215;51.938;8.464;2023-10-08T02:35:39;1.50;;;0.10;;
22097;SDS011;11215;51.938;8.464;2023-10-08T02:38:07;0.20;;;0.10;;
22097;SDS011;11215;51.938;8.464;2023-10-08T02:40:34;0.30;;;0.03;;
22097;SDS011;11215;51.938;8.464;2023-10-08T02:43:02;1.37;;;0.20;;
22097;SDS011;11215;51.938;8.464;2023-10-08T02:45:31;0.10;;;0.10;;
22097;SDS011;11215;51.938;8.464;2023-10-08T02:47:56;0.10;;;0.10;;
22097;SDS011;11215;51.938;8.464;2023-10-08T02:50:22;0.93;;;0.20;;
22097;SDS011;11215;51.938;8.464;2023-10-08T02:52:51;0.10;;;0.10;;
22097;SDS011;11215;51.938;8.464;2023-10-08T02:55:17;0.77;;;0.10;;
22097;SDS011;11215;51.938;8.464;2023-10-08T02:57:59;0.20;;;0.20;;
22097;SDS011;11215;51.938;8.464;2023-10-08T03:00:28;0.10;;;0.10;;
22097;SDS011;11215;51.938;8.464;2023-10-08T03:03:00;0.30;;;0.20;;
22097;SDS011;11215;51.938;8.464;2023-10-08T03:05:26;0.20;;;0.20;;
22097;SDS011;11215;51.938;8.464;2023-10-08T03:08:01;0.20;;;0.20;;
22097;SDS011;11215;51.938;8.464;2023-10-08T03:10:27;0.40;;;0.30;;
22097;SDS011;11215;51.938;8.464;2023-10-08T03:12:58;0.30;;;0.30;;
22097;SDS011;11215;51.938;8.464;2023-10-08T03:15:29;0.43;;;0.20;;
22097;SDS011;11215;51.938;8.464;2023-10-08T03:17:56;0.33;;;0.30;;
22097;SDS011;11215;51.938;8.464;2023-10-08T03:20:35;0.37;;;0.20;;
22097;SDS011;11215;51.938;8.464;2023-10-08T03:23:08;0.57;;;0.30;;
22097;SDS011;11215;51.938;8.464;2023-10-08T03:25:40;0.10;;;0.10;;
22097;SDS011;11215;51.938;8.464;2023-10-08T03:28:11;0.20;;;0.20;;
22097;SDS011;11215;51.938;8.464;2023-10-08T03:30:39;0.20;;;0.20;;
22097;SDS011;11215;51.938;8.464;2023-10-08T03:33:25;0.13;;;0.13;;
22097;SDS011;11215;51.938;8.464;2023-10-08T03:35:52;0.10;;;0.10;;
22097;SDS011;11215;51.938;8.464;2023-10-08T03:38:20;0.60;;;0.30;;
22097;SDS011;11215;51.938;8.464;2023-10-08T03:41:11;0.20;;;0.20;;
22097;SDS011;11215;51.938;8.464;2023-10-08T03:43:43;0.30;;;0.30;;
22097;SDS011;11215;51.938;8.464;2023-10-08T03:46:21;0.47;;;0.40;;
22097;SDS011;11215;51.938;8.464;2023-10-08T03:48:49;0.30;;;0.30;;
22097;SDS011;11215;51.938;8.464;2023-10-08T03:51:20;0.30;;;0.20;;
22097;SDS011;11215;51.938;8.464;2023-10-08T03:53:46;0.20;;;0.20;;
22097;SDS011;11215;51.938;8.464;2023-10-08T03:56:31;0.30;;;0.30;;
22097;SDS011;11215;51.938;8.464;2023-10-08T03:59:01;0.30;;;0.30;;
22097;SDS011;11215;51.938;8.464;2023-10-08T04:01:38;0.37;;;0.37;;
22097;SDS011;11215;51.938;8.464;2023-10-08T04:04:05;0.87;;;0.40;;
22097;SDS011;11215;51.938;8.464;2023-10-08T04:06:37;0.57;;;0.40;;
22097;SDS011;11215;51.938;8.464;2023-10-08T04:09:04;0.50;;;0.30;;
22097;SDS011;11215;51.938;8.464;2023-10-08T04:11:33;0.70;;;0.40;;
22097;SDS011;11215;51.938;8.464;2023-10-08T04:14:14;0.97;;;0.40;;
22097;SDS011;11215;51.938;8.464;2023-10-08T04:16:43;4.17;;;0.73;;
22097;SDS011;11215;51.938;8.464;2023-10-08T04:19:09;1.63;;;0.60;;
22097;SDS011;11215;51.938;8.464;2023-10-08T04:21:36;1.37;;;0.57;;
22097;SDS011;11215;51.938;8.464;2023-10-08T04:24:02;2.67;;;0.80;;
22097;SDS011;11215;51.938;8.464;2023-10-08T04:26:31;2.47;;;0.70;;
22097;SDS011;11215;51.938;8.464;2023-10-08T04:28:58;2.20;;;0.80;;
22097;SDS011;11215;51.938;8.464;2023-10-08T04:31:30;2.33;;;0.63;;
22097;SDS011;11215;51.938;8.464;2023-10-08T04:34:03;2.97;;;1.00;;
22097;SDS011;11215;51.938;8.464;2023-10-08T04:36:45;3.47;;;0.90;;
22097;SDS011;11215;51.938;8.464;2023-10-08T04:39:14;1.40;;;0.77;;
22097;SDS011;11215;51.938;8.464;2023-10-08T04:41:48;3.50;;;0.87;;
22097;SDS011;11215;51.938;8.464;2023-10-08T04:44:19;2.00;;;0.80;;
22097;SDS011;11215;51.938;8.464;2023-10-08T04:46:47;2.30;;;1.10;;
22097;SDS011;11215;51.938;8.464;2023-10-08T04:49:16;2.60;;;0.90;;
22097;SDS011;11215;51.938;8.464;2023-10-08T04:52:03;2.77;;;0.90;;
22097;SDS011;11215;51.938;8.464;2023-10-08T04:54:38;3.13;;;0.70;;
22097;SDS011;11215;51.938;8.464;2023-10-08T04:57:06;2.07;;;0.63;;
22097;SDS011;11215;51.938;8.464;2023-10-08T04:59:40;2.70;;;0.83;;
22097;SDS011;11215;51.938;8.464;2023-10-08T05:02:06;3.30;;;1.17;;
22097;SDS011;11215;51.938;8.464;2023-10-08T05:04:51;3.40;;;0.80;;
22097;SDS011;11215;51.938;8.464;2023-10-08T05:07:17;2.60;;;1.20;;
22097;SDS011;11215;51.938;8.464;2023-10-08T05:09:47;1.40;;;0.80;;
22097;SDS011;11215;51.938;8.464;2023-10-08T05:12:29;2.73;;;0.80;;
22097;SDS011;11215;51.938;8.464;2023-10-08T05:14:57;2.83;;;0.70;;
22097;SDS011;11215;51.938;8.464;2023-10-08T05:17:45;3.23;;;1.00;;
22097;SDS011;11215;51.938;8.464;2023-10-08T05:20:15;2.53;;;0.80;;
22097;SDS011;11215;51.938;8.464;2023-10-08T05:23:11;3.37;;;1.23;;
22097;SDS011;11215;51.938;8.464;2023-10-08T05:25:50;1.53;;;0.70;;
22097;SDS011;11215;51.938;8.464;2023-10-08T05:28:34;1.03;;;0.70;;
22097;SDS011;11215;51.938;8.464;2023-10-08T05:31:07;1.77;;;0.70;;
22097;SDS011;11215;51.938;8.464;2023-10-08T05:33:56;2.97;;;0.70;;
22097;SDS011;11215;51.938;8.464;2023-10-08T05:36:28;1.37;;;0.80;;
22097;SDS011;11215;51.938;8.464;2023-10-08T05:39:01;2.47;;;0.80;;
22097;SDS011;11215;51.938;8.464;2023-10-08T05:41:44;3.37;;;1.23;;
22097;SDS011;11215;51.938;8.464;2023-10-08T05:44:28;2.57;;;0.90;;
22097;SDS011;11215;51.938;8.464;2023-10-08T05:47:04;2.37;;;0.90;;
22097;SDS011;11215;51.938;8.464;2023-10-08T05:49:49;3.70;;;0.83;;
22097;SDS011;11215;51.938;8.464;2023-10-08T05:52:34;2.07;;;0.90;;
22097;SDS011;11215;51.938;8.464;2023-10-08T05:55:18;3.67;;;1.13;;
22097;SDS011;11215;51.938;8.464;2023-10-08T05:57:54;4.20;;;1.30;;
22097;SDS011;11215;51.938;8.464;2023-10-08T06:00:42;2.97;;;0.93;;
22097;SDS011;11215;51.938;8.464;2023-10-08T06:03:31;3.67;;;1.00;;
22097;SDS011;11215;51.938;8.464;2023-10-08T06:06:13;4.07;;;1.10;;
22097;SDS011;11215;51.938;8.464;2023-10-08T06:08:39;4.63;;;1.40;;
22097;SDS011;11215;51.938;8.464;2023-10-08T06:11:25;4.20;;;1.17;;
22097;SDS011;11215;51.938;8.464;2023-10-08T06:14:09;2.40;;;0.80;;
22097;SDS011;11215;51.938;8.464;2023-10-08T06:16:41;5.20;;;1.77;;
22097;SDS011;11215;51.938;8.464;2023-10-08T06:19:12;2.63;;;1.07;;
22097;SDS011;11215;51.938;8.464;2023-10-08T06:21:40;2.93;;;0.90;;
22097;SDS011;11215;51.938;8.464;2023-10-08T06:24:07;4.43;;;1.30;;
22097;SDS011;11215;51.938;8.464;2023-10-08T06:26:42;4.83;;;1.00;;
22097;SDS011;11215;51.938;8.464;2023-10-08T06:29:09;1.33;;;0.77;;
22097;SDS011;11215;51.938;8.464;2023-10-08T06:31:43;1.60;;;1.17;;
22097;SDS011;11215;51.938;8.464;2023-10-08T06:34:17;3.07;;;0.63;;
22097;SDS011;11215;51.938;8.464;2023-10-08T06:36:46;3.67;;;1.00;;
22097;SDS011;11215;51.938;8.464;2023-10-08T06:39:13;4.50;;;1.03;;
22097;SDS011;11215;51.938;8.464;2023-10-08T06:41:44;4.40;;;0.93;;
22097;SDS011;11215;51.938;8.464;2023-10-08T06:44:11;3.17;;;1.20;;
22097;SDS011;11215;51.938;8.464;2023-10-08T06:46:39;3.10;;;1.10;;
22097;SDS011;11215;51.938;8.464;2023-10-08T06:49:06;4.20;;;1.10;;
22097;SDS011;11215;51.938;8.464;2023-10-08T06:51:37;3.47;;;0.87;;
22097;SDS011;11215;51.938;8.464;2023-10-08T06:54:08;4.33;;;1.00;;
22097;SDS011;11215;51.938;8.464;2023-10-08T06:56:36;4.00;;;1.30;;
22097;SDS011;11215;51.938;8.464;2023-10-08T06:59:02;4.20;;;1.10;;
22097;SDS011;11215;51.938;8.464;2023-10-08T07:01:28;4.83;;;1.30;;
22097;SDS011;11215;51.938;8.464;2023-10-08T07:04:06;2.47;;;1.07;;
22097;SDS011;11215;51.938;8.464;2023-10-08T07:06:37;3.13;;;1.20;;
22097;SDS011;11215;51.938;8.464;2023-10-08T07:09:05;5.73;;;1.57;;
22097;SDS011;11215;51.938;8.464;2023-10-08T07:11:34;2.90;;;1.50;;
22097;SDS011;11215;51.938;8.464;2023-10-08T07:14:01;3.90;;;1.70;;
22097;SDS011;11215;51.938;8.464;2023-10-08T07:16:26;3.07;;;1.47;;
22097;SDS011;11215;51.938;8.464;2023-10-08T07:18:53;1.73;;;1.40;;
22097;SDS011;11215;51.938;8.464;2023-10-08T07:21:26;3.80;;;1.50;;
22097;SDS011;11215;51.938;8.464;2023-10-08T07:24:03;3.67;;;1.60;;
22097;SDS011;11215;51.938;8.464;2023-10-08T07:26:34;4.60;;;2.03;;
22097;SDS011;11215;51.938;8.464;2023-10-08T07:29:03;4.57;;;2.63;;
22097;SDS011;11215;51.938;8.464;2023-10-08T07:31:37;5.90;;;2.70;;
22097;SDS011;11215;51.938;8.464;2023-10-08T07:34:13;4.80;;;2.20;;
22097;SDS011;11215;51.938;8.464;2023-10-08T07:36:48;6.23;;;2.67;;
22097;SDS011;11215;51.938;8.464;2023-10-08T07:39:15;4.07;;;1.83;;
22097;SDS011;11215;51.938;8.464;2023-10-08T07:41:59;4.80;;;2.10;;
22097;SDS011;11215;51.938;8.464;2023-10-08T07:44:26;5.50;;;2.07;;
22097;SDS011;11215;51.938;8.464;2023-10-08T07:46:53;2.97;;;2.33;;
22097;SDS011;11215;51.938;8.464;2023-10-08T07:49:25;6.33;;;2.37;;
22097;SDS011;11215;51.938;8.464;2023-10-08T07:51:55;3.40;;;2.13;;
22097;SDS011;11215;51.938;8.464;2023-10-08T07:54:25;4.20;;;2.00;;
22097;SDS011;11215;51.938;8.464;2023-10-08T07:56:54;6.20;;;1.93;;
22097;SDS011;11215;51.938;8.464;2023-10-08T07:59:33;3.83;;;1.80;;
22097;SDS011;11215;51.938;8.464;2023-10-08T08:02:03;4.07;;;1.60;;
22097;SDS011;11215;51.938;8.464;2023-10-08T08:04:35;5.03;;;2.10;;
22097;SDS011;11215;51.938;8.464;2023-10-08T08:07:06;3.70;;;1.60;;
22097;SDS011;11215;51.938;8.464;2023-10-08T08:09:31;3.63;;;1.83;;
22097;SDS011;11215;51.938;8.464;2023-10-08T08:12:06;5.37;;;1.80;;
22097;SDS011;11215;51.938;8.464;2023-10-08T08:14:35;3.57;;;1.60;;
22097;SDS011;11215;51.938;8.464;2023-10-08T08:17:03;3.97;;;1.50;;
22097;SDS011;11215;51.938;8.464;2023-10-08T08:19:38;4.13;;;1.50;;
22097;SDS011;11215;51.938;8.464;2023-10-08T08:22:09;3.00;;;1.50;;
22097;SDS011;11215;51.938;8.464;2023-10-08T08:24:40;5.00;;;1.90;;
22097;SDS011;11215;51.938;8.464;2023-10-08T08:27:10;3.23;;;1.60;;
22097;SDS011;11215;51.938;8.464;2023-10-08T08:29:44;2.73;;;1.63;;
22097;SDS011;11215;51.938;8.464;2023-10-08T08:32:10;4.57;;;1.80;;
22097;SDS011;11215;51.938;8.464;2023-10-08T08:34:40;3.10;;;1.70;;
22097;SDS011;11215;51.938;8.464;2023-10-08T08:37:09;3.00;;;1.10;;
22097;SDS011;11215;51.938;8.464;2023-10-08T08:39:40;3.60;;;1.57;;
22097;SDS011;11215;51.938;8.464;2023-10-08T08:42:07;3.63;;;1.33;;
22097;SDS011;11215;51.938;8.464;2023-10-08T08:44:35;4.70;;;1.30;;
22097;SDS011;11215;51.938;8.464;2023-10-08T08:47:09;2.57;;;0.93;;
22097;SDS011;11215;51.938;8.464;2023-10-08T08:49:39;5.03;;;1.07;;
22097;SDS011;11215;51.938;8.464;2023-10-08T08:52:07;3.03;;;1.00;;
22097;SDS011;11215;51.938;8.464;2023-10-08T08:54:34;4.37;;;1.33;;
22097;SDS011;11215;51.938;8.464;2023-10-08T08:57:02;3.07;;;1.37;;
22097;SDS011;11215;51.938;8.464;2023-10-08T08:59:38;5.77;;;1.50;;
22097;SDS011;11215;51.938;8.464;2023-10-08T09:02:17;1.93;;;1.20;;
22097;SDS011;11215;51.938;8.464;2023-10-08T09:04:43;2.50;;;1.10;;
22097;SDS011;11215;51.938;8.464;2023-10-08T09:07:11;3.47;;;1.30;;
22097;SDS011;11215;51.938;8.464;2023-10-08T09:09:37;2.77;;;1.20;;
22097;SDS011;11215;51.938;8.464;2023-10-08T09:12:04;3.10;;;1.10;;
22097;SDS011;11215;51.938;8.464;2023-10-08T09:14:32;4.70;;;1.30;;
22097;SDS011;11215;51.938;8.464;2023-10-08T09:16:59;2.03;;;1.00;;
22097;SDS011;11215;51.938;8.464;2023-10-08T09:19:25;2.47;;;1.20;;
22097;SDS011;11215;51.938;8.464;2023-10-08T09:22:07;4.17;;;1.20;;
22097;SDS011;11215;51.938;8.464;2023-10-08T09:24:35;2.27;;;0.97;;
22097;SDS011;11215;51.938;8.464;2023-10-08T09:27:04;3.53;;;1.20;;
22097;SDS011;11215;51.938;8.464;2023-10-08T09:29:37;3.20;;;1.30;;
22097;SDS011;11215;51.938;8.464;2023-10-08T09:32:06;3.10;;;1.07;;
22097;SDS011;11215;51.938;8.464;2023-10-08T09:34:34;2.17;;;1.20;;
22097;SDS011;11215;51.938;8.464;2023-10-08T09:37:00;4.27;;;1.60;;
22097;SDS011;11215;51.938;8.464;2023-10-08T09:39:26;3.43;;;1.60;;
22097;SDS011;11215;51.938;8.464;2023-10-08T09:42:02;3.03;;;1.30;;
22097;SDS011;11215;51.938;8.464;2023-10-08T09:44:31;2.03;;;1.20;;
22097;SDS011;11215;51.938;8.464;2023-10-08T09:46:59;3.83;;;1.50;;
22097;SDS011;11215;51.938;8.464;2023-10-08T09:49:33;1.57;;;0.90;;
22097;SDS011;11215;51.938;8.464;2023-10-08T09:52:08;3.37;;;1.00;;
22097;SDS011;11215;51.938;8.464;2023-10-08T09:57:10;3.10;;;1.20;;
22097;SDS011;11215;51.938;8.464;2023-10-08T09:59:36;2.37;;;1.07;;
22097;SDS011;11215;51.938;8.464;2023-10-08T10:02:06;3.40;;;1.20;;
22097;SDS011;11215;51.938;8.464;2023-10-08T10:04:35;2.50;;;1.20;;
22097;SDS011;11215;51.938;8.464;2023-10-08T10:07:08;3.73;;;1.20;;
22097;SDS011;11215;51.938;8.464;2023-10-08T10:09:37;5.83;;;1.33;;
22097;SDS011;11215;51.938;8.464;2023-10-08T10:12:03;2.97;;;1.10;;
22097;SDS011;11215;51.938;8.464;2023-10-08T10:15:08;2.40;;;1.10;;
22097;SDS011;11215;51.938;8.464;2023-10-08T10:17:27;1.43;;;0.87;;
22097;SDS011;11215;51.938;8.464;2023-10-08T10:19:57;3.87;;;1.23;;
22097;SDS011;11215;51.938;8.464;2023-10-08T10:25:01;3.77;;;1.20;;
22097;SDS011;11215;51.938;8.464;2023-10-08T10:30:20;3.20;;;1.60;;
22097;SDS011;11215;51.938;8.464;2023-10-08T10:32:51;3.13;;;1.30;;
22097;SDS011;11215;51.938;8.464;2023-10-08T10:35:16;3.67;;;1.20;;
22097;SDS011;11215;51.938;8.464;2023-10-08T10:37:44;2.07;;;1.10;;
22097;SDS011;11215;51.938;8.464;2023-10-08T10:40:19;2.43;;;1.30;;
22097;SDS011;11215;51.938;8.464;2023-10-08T10:42:56;1.63;;;1.17;;
22097;SDS011;11215;51.938;8.464;2023-10-08T10:45:22;4.03;;;1.73;;
22097;SDS011;11215;51.938;8.464;2023-10-08T10:48:09;4.87;;;1.50;;
22097;SDS011;11215;51.938;8.464;2023-10-08T10:50:43;2.53;;;1.20;;
22097;SDS011;11215;51.938;8.464;2023-10-08T10:53:34;1.67;;;0.90;;
22097;SDS011;11215;51.938;8.464;2023-10-08T10:56:22;4.23;;;1.50;;
22097;SDS011;11215;51.938;8.464;2023-10-08T10:58:58;4.50;;;1.30;;
22097;SDS011;11215;51.938;8.464;2023-10-08T11:01:28;3.53;;;1.40;;
22097;SDS011;11215;51.938;8.464;2023-10-08T11:04:10;1.67;;;0.80;;
22097;SDS011;11215;51.938;8.464;2023-10-08T11:06:41;1.77;;;1.30;;
22097;SDS011;11215;51.938;8.464;2023-10-08T11:09:09;3.20;;;1.30;;
22097;SDS011;11215;51.938;8.464;2023-10-08T11:11:40;3.73;;;1.33;;
22097;SDS011;11215;51.938;8.464;2023-10-08T11:14:10;5.23;;;1.40;;
22097;SDS011;11215;51.938;8.464;2023-10-08T11:16:43;2.87;;;1.33;;
22097;SDS011;11215;51.938;8.464;2023-10-08T11:19:13;2.97;;;1.63;;
22097;SDS011;11215;51.938;8.464;2023-10-08T11:21:53;5.30;;;1.23;;
22097;SDS011;11215;51.938;8.464;2023-10-08T11:24:29;1.60;;;1.20;;
22097;SDS011;11215;51.938;8.464;2023-10-08T11:26:58;2.97;;;1.10;;
22097;SDS011;11215;51.938;8.464;2023-10-08T11:29:46;3.67;;;1.20;;
22097;SDS011;11215;51.938;8.464;2023-10-08T11:32:13;4.43;;;1.30;;
22097;SDS011;11215;51.938;8.464;2023-10-08T11:34:47;2.77;;;1.40;;
22097;SDS011;11215;51.938;8.464;2023-10-08T11:37:28;2.87;;;1.00;;
22097;SDS011;11215;51.938;8.464;2023-10-08T11:39:54;1.67;;;1.20;;
22097;SDS011;11215;51.938;8.464;2023-10-08T11:42:23;1.90;;;1.10;;
22097;SDS011;11215;51.938;8.464;2023-10-08T11:44:58;3.43;;;1.20;;
22097;SDS011;11215;51.938;8.464;2023-10-08T11:47:46;4.00;;;1.37;;
22097;SDS011;11215;51.938;8.464;2023-10-08T11:50:20;2.60;;;1.10;;
22097;SDS011;11215;51.938;8.464;2023-10-08T11:52:57;4.37;;;1.33;;
22097;SDS011;11215;51.938;8.464;2023-10-08T11:55:30;4.53;;;1.30;;
22097;SDS011;11215;51.938;8.464;2023-10-08T11:58:10;1.63;;;0.90;;
22097;SDS011;11215;51.938;8.464;2023-10-08T12:00:39;2.97;;;1.00;;
22097;SDS011;11215;51.938;8.464;2023-10-08T12:03:17;2.00;;;1.13;;
22097;SDS011;11215;51.938;8.464;2023-10-08T12:05:46;2.13;;;1.10;;
22097;SDS011;11215;51.938;8.464;2023-10-08T12:08:13;3.30;;;1.43;;
22097;SDS011;11215;51.938;8.464;2023-10-08T12:10:45;2.03;;;1.20;;
22097;SDS011;11215;51.938;8.464;2023-10-08T12:13:13;3.20;;;1.40;;
22097;SDS011;11215;51.938;8.464;2023-10-08T12:15:41;2.50;;;1.00;;
22097;SDS011;11215;51.938;8.464;2023-10-08T12:18:09;3.77;;;1.30;;
22097;SDS011;11215;51.938;8.464;2023-10-08T12:20:51;2.67;;;1.10;;
22097;SDS011;11215;51.938;8.464;2023-10-08T12:23:17;4.03;;;1.73;;
22097;SDS011;11215;51.938;8.464;2023-10-08T12:25:56;2.97;;;1.43;;
22097;SDS011;11215;51.938;8.464;2023-10-08T12:28:23;3.97;;;1.03;;
22097;SDS011;11215;51.938;8.464;2023-10-08T12:30:49;4.10;;;1.13;;
22097;SDS011;11215;51.938;8.464;2023-10-08T12:33:18;3.17;;;1.13;;
22097;SDS011;11215;51.938;8.464;2023-10-08T12:35:44;3.87;;;1.77;;
22097;SDS011;11215;51.938;8.464;2023-10-08T12:38:13;3.97;;;1.27;;
22097;SDS011;11215;51.938;8.464;2023-10-08T12:40:42;3.87;;;1.70;;
22097;SDS011;11215;51.938;8.464;2023-10-08T12:43:28;3.73;;;1.10;;
22097;SDS011;11215;51.938;8.464;2023-10-08T12:45:54;2.67;;;1.03;;
22097;SDS011;11215;51.938;8.464;2023-10-08T12:48:22;3.70;;;1.57;;
22097;SDS011;11215;51.938;8.464;2023-10-08T12:50:52;2.70;;;1.30;;
22097;SDS011;11215;51.938;8.464;2023-10-08T12:53:22;2.87;;;1.27;;
22097;SDS011;11215;51.938;8.464;2023-10-08T12:55:58;3.77;;;1.10;;
22097;SDS011;11215;51.938;8.464;2023-10-08T12:58:34;3.87;;;1.10;;
22097;SDS011;11215;51.938;8.464;2023-10-08T13:01:07;3.17;;;1.30;;
22097;SDS011;11215;51.938;8.464;2023-10-08T13:03:35;3.77;;;1.10;;
22097;SDS011;11215;51.938;8.464;2023-10-08T13:06:06;2.80;;;1.23;;
22097;SDS011;11215;51.938;8.464;2023-10-08T13:08:36;2.73;;;1.00;;
22097;SDS011;11215;51.938;8.464;2023-10-08T13:11:02;1.53;;;0.80;;
22097;SDS011;11215;51.938;8.464;2023-10-08T13:13:29;1.97;;;0.90;;
22097;SDS011;11215;51.938;8.464;2023-10-08T13:16:01;3.53;;;1.10;;
22097;SDS011;11215;51.938;8.464;2023-10-08T13:18:33;2.13;;;1.10;;
22097;SDS011;11215;51.938;8.464;2023-10-08T13:21:02;2.90;;;1.00;;
22097;SDS011;11215;51.938;8.464;2023-10-08T13:23:28;2.20;;;1.40;;
22097;SDS011;11215;51.938;8.464;2023-10-08T13:25:54;3.23;;;1.07;;
22097;SDS011;11215;51.938;8.464;2023-10-08T13:28:23;2.83;;;1.00;;
22097;SDS011;11215;51.938;8.464;2023-10-08T13:30:52;3.23;;;0.93;;
22097;SDS011;11215;51.938;8.464;2023-10-08T13:33:19;3.70;;;1.00;;
22097;SDS011;11215;51.938;8.464;2023-10-08T13:35:48;1.90;;;1.17;;
22097;SDS011;11215;51.938;8.464;2023-10-08T13:38:18;2.30;;;0.90;;
22097;SDS011;11215;51.938;8.464;2023-10-08T13:40:50;3.83;;;0.93;;
22097;SDS011;11215;51.938;8.464;2023-10-08T13:43:39;2.17;;;0.90;;
22097;SDS011;11215;51.938;8.464;2023-10-08T13:46:16;4.07;;;1.10;;
22097;SDS011;11215;51.938;8.464;2023-10-08T13:48:43;2.13;;;0.90;;
22097;SDS011;11215;51.938;8.464;2023-10-08T13:51:13;2.47;;;1.20;;
22097;SDS011;11215;51.938;8.464;2023-10-08T13:53:48;1.83;;;0.90;;
22097;SDS011;11215;51.938;8.464;2023-10-08T13:56:17;2.63;;;1.10;;
22097;SDS011;11215;51.938;8.464;2023-10-08T13:58:45;1.97;;;0.90;;
22097;SDS011;11215;51.938;8.464;2023-10-08T14:01:14;2.37;;;1.00;;
22097;SDS011;11215;51.938;8.464;2023-10-08T14:03:47;3.13;;;1.00;;
22097;SDS011;11215;51.938;8.464;2023-10-08T14:06:14;1.50;;;0.93;;
22097;SDS011;11215;51.938;8.464;2023-10-08T14:08:41;2.77;;;1.07;;
22097;SDS011;11215;51.938;8.464;2023-10-08T14:11:09;4.90;;;1.10;;
22097;SDS011;11215;51.938;8.464;2023-10-08T14:13:37;5.17;;;1.13;;
22097;SDS011;11215;51.938;8.464;2023-10-08T14:16:07;1.20;;;1.07;;
22097;SDS011;11215;51.938;8.464;2023-10-08T14:18:36;2.40;;;1.00;;
22097;SDS011;11215;51.938;8.464;2023-10-08T14:21:18;2.53;;;0.80;;
22097;SDS011;11215;51.938;8.464;2023-10-08T14:23:48;2.03;;;0.87;;
22097;SDS011;11215;51.938;8.464;2023-10-08T14:26:17;1.97;;;0.90;;
22097;SDS011;11215;51.938;8.464;2023-10-08T14:28:46;2.37;;;0.90;;
22097;SDS011;11215;51.938;8.464;2023-10-08T14:31:18;4.37;;;1.33;;
22097;SDS011;11215;51.938;8.464;2023-10-08T14:33:47;2.00;;;0.90;;
22097;SDS011;11215;51.938;8.464;2023-10-08T14:36:52;1.90;;;0.80;;
22097;SDS011;11215;51.938;8.464;2023-10-08T14:39:42;1.67;;;1.00;;
22097;SDS011;11215;51.938;8.464;2023-10-08T14:42:26;2.87;;;1.00;;
22097;SDS011;11215;51.938;8.464;2023-10-08T14:45:31;2.73;;;1.10;;
22097;SDS011;11215;51.938;8.464;2023-10-08T14:48:00;2.33;;;1.03;;
22097;SDS011;11215;51.938;8.464;2023-10-08T14:50:32;3.60;;;1.10;;
22097;SDS011;11215;51.938;8.464;2023-10-08T14:52:58;2.80;;;1.00;;
22097;SDS011;11215;51.938;8.464;2023-10-08T14:55:30;1.40;;;0.90;;
22097;SDS011;11215;51.938;8.464;2023-10-08T14:57:59;1.87;;;0.70;;
22097;SDS011;11215;51.938;8.464;2023-10-08T15:00:37;3.33;;;1.10;;
22097;SDS011;11215;51.938;8.464;2023-10-08T15:03:03;1.07;;;0.80;;
22097;SDS011;11215;51.938;8.464;2023-10-08T15:05:33;1.80;;;0.80;;
22097;SDS011;11215;51.938;8.464;2023-10-08T15:08:01;1.17;;;0.83;;
22097;SDS011;11215;51.938;8.464;2023-10-08T15:10:36;1.30;;;0.73;;
22097;SDS011;11215;51.938;8.464;2023-10-08T15:13:02;1.93;;;0.80;;
22097;SDS011;11215;51.938;8.464;2023-10-08T15:15:28;1.27;;;1.00;;
22097;SDS011;11215;51.938;8.464;2023-10-08T15:17:59;1.97;;;0.73;;
22097;SDS011;11215;51.938;8.464;2023-10-08T15:20:30;2.63;;;0.80;;